Terminal Aerodrome Forecast
Issued by NWS

Home | Current Version | Previous Version | Text Only | Print | Product List | Glossary On
Versions: 1 2 3 4 5 6 7 8 9 10 11 12 13 14 15 16 17 18 19 20 21
000
FTUS42 KTBW 190500
TAFLAL
TAF
KLAL 190538Z 1906/2006 VRB03KT P6SM SCT040 BKN250
     FM191300 06007KT P6SM VCSH SCT040 BKN150
     FM191600 06007KT 6SM SHRA VCTS BKN040CB BKN100 OVC200
     FM200100 08005KT 6SM BR VCSH SCT020 BKN035 OVC100
      AMD NOT SKED 1906/1912=

USA.gov is the U.S. government's official web portal to all federal, state and local government web resources and services.